Time;durP1;ratioP1;P1;durP2;ratioP2;P2;SDS_P1;SDS_P2;PMS_P1;PMS_P2;Temp;Humidity;BMP_temperature;BMP_pressure;BME280_temperature;BME280_humidity;BME280_pressure;Samples;Min_cycle;Max_cycle;Signal;HPM_P1;HPM_P2
2023/03/11 00:02:14;;;;;;;;;;;;;;;5.43;61.16;100541.22;7363024;19;19951;-60
2023/03/11 00:04:42;;;;;;;;;;;;;;;5.39;62.09;100561.50;7363703;19;19931;-59
2023/03/11 00:07:10;;;;;;;;;;;;;;;5.35;61.72;100569.72;7362475;19;19918;-62
2023/03/11 00:09:37;;;;;;;;;;;;;;;5.31;61.96;100571.75;7358887;19;19949;-61
2023/03/11 00:12:04;;;;;;;;;;;;;;;5.27;62.16;100587.78;7363426;19;19926;-63
2023/03/11 00:14:31;;;;;;;;;;;;;;;5.24;62.32;100585.41;7363746;19;19936;-61
2023/03/11 00:16:58;;;;;;;;;;;;;;;5.27;61.71;100586.00;7362635;19;19919;-62
2023/03/11 00:19:25;;;;;;;;;;;;;;;5.24;61.73;100590.63;7364726;19;19999;-61
2023/03/11 00:21:52;;;;;;;;;;;;;;;5.21;61.83;100594.31;7358522;19;20759;-58
2023/03/11 00:24:18;;;;;;;;;;;;;;;5.18;62.09;100589.38;7358624;19;20237;-62
2023/03/11 00:26:45;;;;;;;;;;;;;;;5.15;62.69;100598.25;7361589;19;19998;-59
2023/03/11 00:29:12;;;;;;;;;;;;;;;5.14;62.53;100599.19;7363589;19;19942;-62
2023/03/11 00:31:39;;;;;;;;;;;;;;;5.16;62.95;100596.47;7363369;19;19939;-58
2023/03/11 00:34:06;;;;;;;;;;;;;;;5.20;61.77;100592.66;7363906;19;19923;-64
2023/03/11 00:36:33;;;;;;;;;;;;;;;5.18;63.21;100589.38;7357830;19;19955;-59
2023/03/11 00:39:01;;;;;;;;;;;;;;;5.17;64.65;100585.09;7361654;19;20332;-62
2023/03/11 00:41:28;;;;;;;;;;;;;;;5.16;63.08;100571.22;7362262;19;19927;-62
2023/03/11 00:43:54;;;;;;;;;;;;;;;5.14;64.63;100567.91;7360780;19;20294;-61
2023/03/11 00:46:21;;;;;;;;;;;;;;;5.13;65.74;100561.03;7362048;19;19949;-59
2023/03/11 00:48:50;;;;;;;;;;;;;;;5.13;65.60;100560.19;7359288;19;19950;-60
2023/03/11 00:51:17;;;;;;;;;;;;;;;5.12;66.52;100563.78;7361423;19;20343;-60
2023/03/11 00:53:44;;;;;;;;;;;;;;;5.10;65.53;100570.88;7357957;19;20013;-59
2023/03/11 00:56:12;;;;;;;;;;;;;;;5.07;65.71;100560.72;7361376;19;19929;-60
2023/03/11 00:58:39;;;;;;;;;;;;;;;5.12;67.07;100569.00;7361412;19;20002;-59
2023/03/11 01:01:07;;;;;;;;;;;;;;;5.13;64.28;100566.25;7360962;19;19951;-58
2023/03/11 01:03:34;;;;;;;;;;;;;;;5.13;64.08;100558.41;7359637;19;19963;-60
2023/03/11 01:06:01;;;;;;;;;;;;;;;5.07;64.83;100556.34;7361535;19;20539;-60
2023/03/11 01:08:30;;;;;;;;;;;;;;;5.03;66.58;100567.94;7358596;19;20301;-61
2023/03/11 01:10:57;;;;;;;;;;;;;;;5.02;68.15;100562.88;7361826;19;19975;-60
2023/03/11 01:13:25;;;;;;;;;;;;;;;5.05;69.46;100560.00;7361258;19;20047;-62
2023/03/11 01:15:52;;;;;;;;;;;;;;;5.07;70.86;100569.38;7363939;19;19979;-61
2023/03/11 01:18:19;;;;;;;;;;;;;;;5.06;68.93;100580.75;7359923;19;20553;-60
2023/03/11 01:20:46;;;;;;;;;;;;;;;5.05;68.30;100579.09;7359749;19;19955;-62
2023/03/11 01:23:14;;;;;;;;;;;;;;;5.06;68.32;100585.13;7359578;19;19994;-60
2023/03/11 01:25:41;;;;;;;;;;;;;;;5.08;70.35;100589.25;7358530;19;19959;-59
2023/03/11 01:28:08;;;;;;;;;;;;;;;5.10;70.47;100589.13;7362681;19;21816;-63
2023/03/11 01:30:35;;;;;;;;;;;;;;;5.11;71.11;100582.97;7359969;19;19919;-65
2023/03/11 01:33:03;;;;;;;;;;;;;;;5.10;70.49;100587.34;7360664;19;19998;-60
2023/03/11 01:35:30;;;;;;;;;;;;;;;5.11;69.77;100585.59;7358950;19;19948;-61
2023/03/11 01:37:58;;;;;;;;;;;;;;;5.09;70.32;100585.69;7357143;19;20374;-61
2023/03/11 01:40:28;;;;;;;;;;;;;;;5.09;70.54;100580.47;7357924;19;19958;-62
2023/03/11 01:42:55;;;;;;;;;;;;;;;5.10;70.67;100569.09;7357204;19;19997;-64
2023/03/11 01:45:25;;;;;;;;;;;;;;;5.11;69.75;100565.56;7362179;19;19951;-59
2023/03/11 01:47:52;;;;;;;;;;;;;;;5.09;68.92;100558.78;7358122;19;19927;-62
2023/03/11 01:50:19;;;;;;;;;;;;;;;5.08;70.49;100560.56;7359212;19;19923;-59
2023/03/11 01:52:46;;;;;;;;;;;;;;;5.07;69.92;100558.94;7356619;19;21751;-61
2023/03/11 01:55:15;;;;;;;;;;;;;;;5.08;71.20;100562.34;7358373;19;21349;-63
2023/03/11 01:57:43;;;;;;;;;;;;;;;5.09;71.34;100558.78;7358867;19;19982;-59
2023/03/11 02:00:11;;;;;;;;;;;;;;;5.08;71.21;100549.31;7358637;19;19954;-59
2023/03/11 02:02:41;;;;;;;;;;;;;;;5.07;71.03;100545.91;7358818;19;19941;-62
2023/03/11 02:05:08;;;;;;;;;;;;;;;5.04;70.31;100556.56;7357777;19;19922;-60
2023/03/11 02:07:37;;;;;;;;;;;;;;;5.00;70.06;100554.34;7358250;19;20006;-61
2023/03/11 02:10:06;;;;;;;;;;;;;;;4.97;70.54;100552.00;7356893;19;19911;-60
2023/03/11 02:12:34;;;;;;;;;;;;;;;4.93;71.71;100548.78;7360781;19;20282;-60
2023/03/11 02:15:01;;;;;;;;;;;;;;;4.88;71.51;100552.69;7359309;19;19990;-60
2023/03/11 02:17:29;;;;;;;;;;;;;;;4.85;71.63;100543.38;7358844;19;19926;-63
2023/03/11 02:19:59;;;;;;;;;;;;;;;4.84;71.36;100552.13;7360362;19;19915;-59
2023/03/11 02:22:28;;;;;;;;;;;;;;;4.80;70.45;100540.31;7356620;19;19927;-60
2023/03/11 02:24:57;;;;;;;;;;;;;;;4.78;71.05;100539.59;7356991;19;19927;-64
2023/03/11 02:27:25;;;;;;;;;;;;;;;4.72;70.50;100538.28;7356796;19;19951;-60
2023/03/11 02:29:55;;;;;;;;;;;;;;;4.67;70.45;100535.22;7359470;19;19936;-62
2023/03/11 02:32:23;;;;;;;;;;;;;;;4.66;70.89;100532.78;7358345;19;19934;-59
2023/03/11 02:34:50;;;;;;;;;;;;;;;4.67;71.47;100537.03;7358971;19;20367;-61
2023/03/11 02:37:17;;;;;;;;;;;;;;;4.65;71.08;100539.75;7357916;19;19914;-61
2023/03/11 02:39:45;;;;;;;;;;;;;;;4.63;71.35;100543.41;7355956;19;19922;-59
2023/03/11 02:42:16;;;;;;;;;;;;;;;4.57;71.56;100542.13;7356714;19;21562;-62
2023/03/11 02:44:45;;;;;;;;;;;;;;;4.52;72.45;100544.25;7357141;19;19919;-59
2023/03/11 02:47:13;;;;;;;;;;;;;;;4.57;73.49;100538.72;7356961;19;20299;-60
2023/03/11 02:49:40;;;;;;;;;;;;;;;4.59;74.54;100537.63;7358090;19;19923;-60
2023/03/11 02:52:07;;;;;;;;;;;;;;;4.57;72.38;100528.28;7355473;19;20178;-60
2023/03/11 02:54:34;;;;;;;;;;;;;;;4.56;72.64;100527.47;7363118;19;19965;-60
2023/03/11 02:57:01;;;;;;;;;;;;;;;4.54;72.49;100526.75;7366450;19;20310;-59
2023/03/11 02:59:28;;;;;;;;;;;;;;;4.49;71.97;100526.28;7364942;19;19925;-60
2023/03/11 03:01:55;;;;;;;;;;;;;;;4.47;72.49;100524.75;7362375;19;20712;-63
2023/03/11 03:04:22;;;;;;;;;;;;;;;4.46;73.25;100520.50;7364258;19;20506;-60
2023/03/11 03:06:49;;;;;;;;;;;;;;;4.40;73.12;100510.56;7364546;19;20917;-60
2023/03/11 03:09:16;;;;;;;;;;;;;;;4.37;72.84;100511.63;7364535;19;19922;-60
2023/03/11 03:11:43;;;;;;;;;;;;;;;4.37;72.93;100518.63;7360054;19;19987;-60
2023/03/11 03:14:10;;;;;;;;;;;;;;;4.38;74.44;100521.09;7365970;19;19923;-60
2023/03/11 03:16:37;;;;;;;;;;;;;;;4.34;73.89;100522.28;7366011;19;19923;-58
2023/03/11 03:19:04;;;;;;;;;;;;;;;4.29;73.61;100516.63;7361160;19;20010;-60
2023/03/11 03:21:31;;;;;;;;;;;;;;;4.23;73.37;100520.53;7366429;19;19926;-65
2023/03/11 03:23:58;;;;;;;;;;;;;;;4.24;74.50;100524.78;7362224;19;19951;-60
2023/03/11 03:26:25;;;;;;;;;;;;;;;4.26;74.56;100522.91;7366719;19;19986;-60
2023/03/11 03:28:52;;;;;;;;;;;;;;;4.26;74.77;100525.50;7363822;19;20474;-59
2023/03/11 03:31:19;;;;;;;;;;;;;;;4.26;74.54;100511.66;7364252;19;20366;-60
2023/03/11 03:33:46;;;;;;;;;;;;;;;4.27;74.71;100508.06;7361829;19;19922;-61
2023/03/11 03:36:14;;;;;;;;;;;;;;;4.27;73.89;100508.91;7364270;19;20721;-60
2023/03/11 03:38:41;;;;;;;;;;;;;;;4.27;73.67;100497.66;7360198;19;20744;-60
2023/03/11 03:41:08;;;;;;;;;;;;;;;4.29;74.62;100496.63;7363578;19;19918;-57
2023/03/11 03:43:35;;;;;;;;;;;;;;;4.32;75.68;100498.97;7362671;19;20901;-58
2023/03/11 03:46:03;;;;;;;;;;;;;;;4.37;78.19;100493.38;7364477;19;20545;-59
2023/03/11 03:48:30;;;;;;;;;;;;;;;4.41;78.34;100484.41;7360549;19;19942;-61
2023/03/11 03:51:01;;;;;;;;;;;;;;;4.45;79.79;100479.78;7364429;19;19947;-60
2023/03/11 03:53:28;;;;;;;;;;;;;;;4.45;78.49;100487.59;7358590;19;20751;-60
2023/03/11 03:55:55;;;;;;;;;;;;;;;4.44;78.20;100483.31;7364540;19;20768;-61
2023/03/11 03:58:22;;;;;;;;;;;;;;;4.45;79.63;100487.59;7363391;19;20822;-60
2023/03/11 04:00:54;;;;;;;;;;;;;;;4.44;78.80;100489.34;7362620;19;20524;-60
2023/03/11 04:03:21;;;;;;;;;;;;;;;4.42;77.65;100499.06;7361118;19;19936;-60
2023/03/11 04:05:48;;;;;;;;;;;;;;;4.40;78.31;100492.34;7362200;19;20397;-61
2023/03/11 04:08:15;;;;;;;;;;;;;;;4.35;77.73;100497.91;7361352;19;19965;-61
2023/03/11 04:10:42;;;;;;;;;;;;;;;4.32;78.02;100487.72;7363283;19;19923;-60
2023/03/11 04:13:08;;;;;;;;;;;;;;;4.32;80.24;100490.31;7361084;19;19967;-61
2023/03/11 04:15:38;;;;;;;;;;;;;;;4.26;79.60;100496.88;7363729;19;20268;-61
2023/03/11 04:18:05;;;;;;;;;;;;;;;4.24;78.59;100508.34;7362633;19;20304;-60
2023/03/11 04:20:32;;;;;;;;;;;;;;;4.20;77.21;100510.34;7364741;19;20221;-60
2023/03/11 04:22:59;;;;;;;;;;;;;;;4.20;77.31;100518.16;7359199;19;20217;-61
2023/03/11 04:25:25;;;;;;;;;;;;;;;4.23;77.35;100522.28;7360274;19;19910;-66
2023/03/11 04:27:52;;;;;;;;;;;;;;;4.25;76.75;100515.19;7361175;19;19982;-57
2023/03/11 04:30:19;;;;;;;;;;;;;;;4.28;77.07;100507.97;7361801;19;19923;-58
2023/03/11 04:32:46;;;;;;;;;;;;;;;4.35;77.38;100518.75;7359929;19;20631;-60
2023/03/11 04:35:13;;;;;;;;;;;;;;;4.38;76.85;100533.28;7362091;19;19975;-58
2023/03/11 04:37:40;;;;;;;;;;;;;;;4.39;75.75;100530.56;7359104;19;19941;-59
2023/03/11 04:40:09;;;;;;;;;;;;;;;4.39;76.38;100532.34;7359440;19;20336;-59
2023/03/11 04:42:37;;;;;;;;;;;;;;;4.45;77.14;100542.28;7359343;19;19926;-59
2023/03/11 04:45:05;;;;;;;;;;;;;;;4.49;77.37;100536.69;7360314;19;19978;-58
2023/03/11 04:47:32;;;;;;;;;;;;;;;4.54;78.19;100537.16;7361748;19;19922;-60
2023/03/11 04:49:59;;;;;;;;;;;;;;;4.59;78.15;100547.22;7363177;19;20344;-57
2023/03/11 04:52:26;;;;;;;;;;;;;;;4.59;75.65;100547.22;7358517;19;19923;-60
2023/03/11 04:54:53;;;;;;;;;;;;;;;4.62;76.07;100541.78;7359608;19;19919;-59
2023/03/11 04:57:20;;;;;;;;;;;;;;;4.64;76.98;100552.91;7360985;19;19923;-60
2023/03/11 04:59:47;;;;;;;;;;;;;;;4.64;76.62;100558.94;7360497;19;19941;-61
2023/03/11 05:02:14;;;;;;;;;;;;;;;4.64;75.96;100558.94;7357958;19;19955;-63
2023/03/11 05:04:41;;;;;;;;;;;;;;;4.64;74.36;100558.94;7361957;19;19921;-61
2023/03/11 05:07:08;;;;;;;;;;;;;;;4.66;75.93;100559.66;7360649;19;19987;-59
2023/03/11 05:09:35;;;;;;;;;;;;;;;4.64;75.73;100564.16;7358422;19;19927;-61
2023/03/11 05:12:03;;;;;;;;;;;;;;;4.64;75.16;100571.97;7360496;19;20427;-60
2023/03/11 05:14:30;;;;;;;;;;;;;;;4.66;75.91;100572.69;7360919;19;20165;-59
2023/03/11 05:16:57;;;;;;;;;;;;;;;4.67;75.58;100574.31;7357445;19;19930;-58
2023/03/11 05:22:01;;;;;;;;;;;;;;;4.72;76.62;100582.59;7358679;19;19925;-61
2023/03/11 05:24:28;;;;;;;;;;;;;;;4.73;76.88;100576.44;7358686;19;19939;-60
2023/03/11 05:26:56;;;;;;;;;;;;;;;4.74;75.02;100583.31;7359969;19;19914;-60
2023/03/11 05:29:23;;;;;;;;;;;;;;;4.76;75.17;100580.59;7360834;19;20262;-62
2023/03/11 05:31:50;;;;;;;;;;;;;;;4.76;76.58;100572.78;7359211;19;20430;-58
2023/03/11 05:34:17;;;;;;;;;;;;;;;4.77;76.76;100568.41;7359183;19;20357;-60
2023/03/11 05:36:44;;;;;;;;;;;;;;;4.77;76.04;100568.41;7360636;19;19923;-60
2023/03/11 05:39:11;;;;;;;;;;;;;;;4.74;75.98;100572.88;7356687;19;19930;-60
2023/03/11 05:41:38;;;;;;;;;;;;;;;4.76;76.31;100574.53;7360469;19;19918;-62
2023/03/11 05:44:05;;;;;;;;;;;;;;;4.80;77.27;100578.56;7360426;19;19943;-58
2023/03/11 05:46:32;;;;;;;;;;;;;;;4.80;76.11;100582.00;7359341;19;20248;-59
2023/03/11 05:49:00;;;;;;;;;;;;;;;4.80;75.15;100579.38;7357669;19;19930;-60
2023/03/11 05:51:27;;;;;;;;;;;;;;;4.80;74.86;100576.78;7360074;19;19948;-60
2023/03/11 05:53:53;;;;;;;;;;;;;;;4.82;75.92;100585.31;7355580;19;19927;-61
2023/03/11 05:56:21;;;;;;;;;;;;;;;4.84;74.72;100590.38;7361085;19;19987;-62
2023/03/11 05:58:49;;;;;;;;;;;;;;;4.84;75.03;100598.22;7357143;19;20346;-62
2023/03/11 06:01:17;;;;;;;;;;;;;;;4.83;75.49;100599.16;7359696;19;19926;-61
2023/03/11 06:03:43;;;;;;;;;;;;;;;4.82;76.25;100590.53;7357816;19;19925;-61
2023/03/11 06:06:11;;;;;;;;;;;;;;;4.82;76.21;100579.28;7360758;19;19971;-60
2023/03/11 06:08:38;;;;;;;;;;;;;;;4.79;75.25;100585.53;7354823;19;20826;-59
2023/03/11 06:11:06;;;;;;;;;;;;;;;4.83;76.44;100589.56;7359911;19;20221;-58
2023/03/11 06:13:34;;;;;;;;;;;;;;;4.86;76.55;100593.72;7357227;19;19946;-61
2023/03/11 06:16:01;;;;;;;;;;;;;;;4.86;75.26;100596.31;7359640;19;19926;-60
2023/03/11 06:18:28;;;;;;;;;;;;;;;4.86;76.19;100581.50;7356751;19;19950;-62
2023/03/11 06:20:57;;;;;;;;;;;;;;;4.89;78.16;100573.44;7360036;19;21047;-61
2023/03/11 06:23:24;;;;;;;;;;;;;;;4.89;77.07;100583.03;7354341;19;20337;-60
2023/03/11 06:25:54;;;;;;;;;;;;;;;4.89;75.81;100580.44;7357192;19;19919;-62
2023/03/11 06:28:21;;;;;;;;;;;;;;;4.86;75.96;100565.88;7357576;19;19923;-60
2023/03/11 06:30:48;;;;;;;;;;;;;;;4.87;75.94;100585.78;7359180;19;19923;-59
2023/03/11 06:33:15;;;;;;;;;;;;;;;4.92;77.42;100594.06;7355645;19;19927;-60
2023/03/11 06:35:42;;;;;;;;;;;;;;;4.94;76.14;100592.16;7358507;19;20430;-60
2023/03/11 06:38:09;;;;;;;;;;;;;;;4.94;76.00;100593.91;7356828;19;20540;-62
2023/03/11 06:40:37;;;;;;;;;;;;;;;4.93;75.76;100603.50;7357196;19;19915;-63
2023/03/11 06:43:03;;;;;;;;;;;;;;;4.91;75.50;100604.59;7354456;19;19959;-59
2023/03/11 06:45:30;;;;;;;;;;;;;;;4.92;75.63;100595.84;7358484;19;19934;-60
2023/03/11 06:47:57;;;;;;;;;;;;;;;4.91;75.67;100599.38;7355299;19;19926;-64
2023/03/11 06:50:24;;;;;;;;;;;;;;;4.92;76.52;100607.09;7358700;19;20915;-61
2023/03/11 06:52:51;;;;;;;;;;;;;;;4.94;76.57;100628.63;7354855;19;19926;-60
2023/03/11 06:55:20;;;;;;;;;;;;;;;4.95;77.14;100617.25;7355628;19;20309;-59
2023/03/11 06:57:47;;;;;;;;;;;;;;;4.98;77.38;100621.38;7358479;19;19923;-61
2023/03/11 07:00:15;;;;;;;;;;;;;;;5.01;76.82;100631.59;7358155;19;20552;-62
2023/03/11 07:02:42;;;;;;;;;;;;;;;5.02;75.74;100638.47;7358421;19;20493;-59
2023/03/11 07:05:09;;;;;;;;;;;;;;;5.04;76.15;100637.38;7356904;19;19929;-61
2023/03/11 07:07:36;;;;;;;;;;;;;;;5.06;75.97;100642.47;7358460;19;19922;-60
2023/03/11 07:10:06;;;;;;;;;;;;;;;5.09;76.16;100640.44;7356816;19;20351;-64
2023/03/11 07:12:33;;;;;;;;;;;;;;;5.11;75.98;100638.56;7357547;19;19924;-58
2023/03/11 07:15:00;;;;;;;;;;;;;;;5.15;75.55;100653.00;7356304;19;19922;-61
2023/03/11 07:17:27;;;;;;;;;;;;;;;5.15;74.67;100654.78;7358801;19;19930;-63
2023/03/11 07:19:55;;;;;;;;;;;;;;;5.18;74.70;100653.72;7358589;19;19911;-61
2023/03/11 07:22:22;;;;;;;;;;;;;;;5.21;75.62;100656.91;7357292;19;20106;-59
2023/03/11 07:24:49;;;;;;;;;;;;;;;5.22;75.27;100655.97;7354488;19;19955;-60
2023/03/11 07:27:16;;;;;;;;;;;;;;;5.25;74.70;100663.53;7357521;19;19918;-59
2023/03/11 07:29:43;;;;;;;;;;;;;;;5.27;73.26;100664.25;7357892;19;21131;-62
2023/03/11 07:32:10;;;;;;;;;;;;;;;5.32;72.92;100674.31;7356405;19;20151;-62
2023/03/11 07:34:37;;;;;;;;;;;;;;;5.38;73.37;100666.00;7356254;19;20042;-62
2023/03/11 07:37:06;;;;;;;;;;;;;;;5.39;71.60;100672.84;7355155;19;20718;-61
2023/03/11 07:39:34;;;;;;;;;;;;;;;5.44;72.04;100660.25;7355675;19;20344;-63
2023/03/11 07:42:01;;;;;;;;;;;;;;;5.46;71.65;100656.59;7363864;19;19926;-62
2023/03/11 07:44:30;;;;;;;;;;;;;;;5.50;71.44;100644.94;7362349;19;20021;-60
2023/03/11 07:46:57;;;;;;;;;;;;;;;5.56;72.74;100644.44;7362411;19;19927;-62
2023/03/11 07:49:25;;;;;;;;;;;;;;;5.56;70.74;100641.84;7359316;19;19918;-62
2023/03/11 07:51:52;;;;;;;;;;;;;;;5.57;71.55;100651.31;7362222;19;20411;-64
2023/03/11 07:54:19;;;;;;;;;;;;;;;5.62;72.18;100645.72;7362395;19;19926;-63
2023/03/11 07:56:46;;;;;;;;;;;;;;;5.61;71.98;100644.06;7366413;19;20249;-61
2023/03/11 07:59:13;;;;;;;;;;;;;;;5.63;71.14;100638.72;7361676;19;19919;-59
2023/03/11 08:01:46;;;;;;;;;;;;;;;5.67;70.92;100645.34;7362017;19;19919;-61
2023/03/11 08:04:15;;;;;;;;;;;;;;;5.70;70.04;100639.88;7362287;19;19930;-61
2023/03/11 08:06:44;;;;;;;;;;;;;;;5.73;68.99;100650.06;7363423;19;20709;-61
2023/03/11 08:09:12;;;;;;;;;;;;;;;5.79;68.38;100666.03;7362099;19;20602;-61
2023/03/11 08:11:39;;;;;;;;;;;;;;;5.89;69.39;100663.56;7362438;19;20335;-61
2023/03/11 08:14:06;;;;;;;;;;;;;;;6.05;68.40;100674.34;7361017;19;19954;-59
2023/03/11 08:16:33;;;;;;;;;;;;;;;6.18;66.48;100668.94;7363197;19;19931;-61
2023/03/11 08:19:00;;;;;;;;;;;;;;;6.29;66.49;100668.88;7361401;19;19919;-61
2023/03/11 08:21:28;;;;;;;;;;;;;;;6.37;67.64;100666.44;7365767;19;20023;-59
2023/03/11 08:23:56;;;;;;;;;;;;;;;6.38;67.89;100665.47;7358439;19;20288;-59
2023/03/11 08:26:23;;;;;;;;;;;;;;;6.38;68.04;100663.69;7365376;19;19927;-61
2023/03/11 08:28:50;;;;;;;;;;;;;;;6.42;68.66;100661.66;7361354;19;20484;-61
2023/03/11 08:31:19;;;;;;;;;;;;;;;6.45;68.27;100664.81;7362254;19;19919;-60
2023/03/11 08:33:48;;;;;;;;;;;;;;;6.59;68.76;100663.66;7360065;19;19923;-62
2023/03/11 08:36:16;;;;;;;;;;;;;;;6.67;67.94;100663.00;7362487;19;19940;-61
2023/03/11 08:38:43;;;;;;;;;;;;;;;6.75;67.87;100671.00;7359058;19;19933;-60
2023/03/11 08:41:10;;;;;;;;;;;;;;;6.77;67.37;100671.69;7362561;19;20217;-60
2023/03/11 08:43:37;;;;;;;;;;;;;;;6.79;67.53;100660.16;7358162;19;19923;-60
2023/03/11 08:46:06;;;;;;;;;;;;;;;6.84;67.81;100660.59;7362337;19;19919;-62
2023/03/11 08:48:35;;;;;;;;;;;;;;;6.95;68.03;100664.06;7359342;19;19923;-62
2023/03/11 08:51:07;;;;;;;;;;;;;;;7.03;68.15;100669.44;7361475;19;19918;-61
2023/03/11 08:53:34;;;;;;;;;;;;;;;7.13;66.96;100662.44;7356349;19;19915;-62
2023/03/11 08:56:01;;;;;;;;;;;;;;;7.25;66.98;100664.81;7360882;19;20340;-61
2023/03/11 08:58:28;;;;;;;;;;;;;;;7.35;64.24;100659.59;7359857;19;19930;-59
2023/03/11 09:00:56;;;;;;;;;;;;;;;7.47;64.45;100658.47;7360960;19;20729;-60
2023/03/11 09:03:23;;;;;;;;;;;;;;;7.61;63.94;100665.94;7357383;19;19923;-62
2023/03/11 09:05:55;;;;;;;;;;;;;;;7.61;62.89;100663.31;7361875;19;20493;-60
2023/03/11 09:08:23;;;;;;;;;;;;;;;7.58;62.14;100668.00;7359254;19;19933;-61
2023/03/11 09:10:49;;;;;;;;;;;;;;;7.56;61.24;100667.31;7360248;19;20287;-60
2023/03/11 09:13:16;;;;;;;;;;;;;;;7.60;62.35;100668.69;7359683;19;19939;-60
2023/03/11 09:15:43;;;;;;;;;;;;;;;7.57;62.11;100667.16;7361310;19;19919;-60
2023/03/11 09:18:11;;;;;;;;;;;;;;;7.63;62.63;100671.03;7359396;19;19934;-61
2023/03/11 09:20:38;;;;;;;;;;;;;;;7.59;61.00;100680.13;7360604;19;19923;-62
2023/03/11 09:23:06;;;;;;;;;;;;;;;7.60;61.29;100673.94;7359636;19;20574;-63
2023/03/11 09:25:33;;;;;;;;;;;;;;;7.63;61.23;100671.84;7359156;19;19919;-62
2023/03/11 09:27:59;;;;;;;;;;;;;;;7.68;60.49;100685.34;7358501;19;19922;-58
2023/03/11 09:30:27;;;;;;;;;;;;;;;7.75;61.35;100685.66;7360045;19;20639;-61
2023/03/11 09:32:54;;;;;;;;;;;;;;;7.77;60.82;100682.91;7359360;19;19962;-60
2023/03/11 09:35:21;;;;;;;;;;;;;;;7.83;61.10;100683.16;7358849;19;20215;-62
2023/03/11 09:37:48;;;;;;;;;;;;;;;7.88;61.49;100698.44;7359336;19;19937;-65
2023/03/11 09:40:17;;;;;;;;;;;;;;;7.94;63.84;100703.97;7358119;19;20467;-65
2023/03/11 09:42:45;;;;;;;;;;;;;;;7.99;61.91;100701.75;7359063;19;19915;-62
2023/03/11 09:45:15;;;;;;;;;;;;;;;8.03;59.69;100703.13;7360065;19;19926;-60
2023/03/11 09:47:45;;;;;;;;;;;;;;;8.05;59.44;100695.97;7358704;19;19930;-63
2023/03/11 09:50:17;;;;;;;;;;;;;;;8.08;59.17;100676.50;7354277;19;19918;-61
2023/03/11 09:52:45;;;;;;;;;;;;;;;8.11;59.08;100671.81;7354895;19;19930;-60
2023/03/11 09:55:16;;;;;;;;;;;;;;;8.15;58.83;100660.09;7353706;19;19922;-61
2023/03/11 09:57:48;;;;;;;;;;;;;;;8.18;57.43;100651.94;7356908;19;20345;-60
2023/03/11 10:00:17;;;;;;;;;;;;;;;8.22;56.27;100662.16;7353876;19;19930;-62
2023/03/11 10:02:44;;;;;;;;;;;;;;;8.30;55.56;100654.41;7358987;19;20300;-59
2023/03/11 10:05:15;;;;;;;;;;;;;;;8.40;57.47;100658.66;7359480;19;19926;-61
2023/03/11 10:07:45;;;;;;;;;;;;;;;8.47;58.05;100669.41;7361458;19;19925;-61
2023/03/11 10:10:13;;;;;;;;;;;;;;;8.54;57.34;100668.69;7355642;19;19922;-61
2023/03/11 10:12:43;;;;;;;;;;;;;;;8.58;56.22;100669.25;7361264;19;20632;-60
2023/03/11 10:15:13;;;;;;;;;;;;;;;8.59;55.98;100668.25;7357012;19;19919;-62
2023/03/11 10:17:43;;;;;;;;;;;;;;;8.63;56.98;100671.44;7359131;19;19926;-62
2023/03/11 10:20:13;;;;;;;;;;;;;;;8.65;56.18;100657.19;7360511;19;19937;-61
2023/03/11 10:22:43;;;;;;;;;;;;;;;8.70;55.71;100667.25;7357085;19;19922;-60
2023/03/11 10:25:13;;;;;;;;;;;;;;;8.75;55.01;100670.25;7358872;19;19923;-62
2023/03/11 10:27:44;;;;;;;;;;;;;;;8.83;56.33;100671.22;7359391;19;20304;-61
2023/03/11 10:30:14;;;;;;;;;;;;;;;8.90;56.54;100663.56;7360446;19;20016;-61
2023/03/11 10:32:43;;;;;;;;;;;;;;;8.97;55.86;100662.00;7359218;19;19925;-60
2023/03/11 10:35:13;;;;;;;;;;;;;;;9.00;55.85;100645.97;7360471;19;19922;-61
2023/03/11 10:37:43;;;;;;;;;;;;;;;9.02;55.87;100644.03;7357057;19;19919;-63
2023/03/11 10:40:18;;;;;;;;;;;;;;;9.03;56.10;100645.69;7359177;19;19934;-63
2023/03/11 10:42:50;;;;;;;;;;;;;;;9.10;56.53;100638.03;7359182;19;19914;-65
2023/03/11 10:45:19;;;;;;;;;;;;;;;9.12;55.13;100638.72;7358124;19;21453;-64
2023/03/11 10:47:46;;;;;;;;;;;;;;;9.09;55.73;100634.59;7366468;19;19915;-62
2023/03/11 10:50:16;;;;;;;;;;;;;;;9.02;55.03;100637.00;7361407;19;19946;-63
2023/03/11 10:53:02;;;;;;;;;;;;;;;9.06;58.11;100636.69;7356573;19;19927;-59
2023/03/11 10:55:29;;;;;;;;;;;;;;;9.00;55.62;100645.97;7355572;19;19974;-61
2023/03/11 10:58:00;;;;;;;;;;;;;;;9.01;55.31;100651.06;7356744;19;19930;-62
2023/03/11 11:00:29;;;;;;;;;;;;;;;9.05;57.39;100642.91;7355904;19;19923;-61
2023/03/11 11:02:57;;;;;;;;;;;;;;;9.04;56.16;100631.56;7359361;19;19923;-62
2023/03/11 11:05:27;;;;;;;;;;;;;;;9.09;56.91;100637.22;7359112;19;20257;-63
2023/03/11 11:07:57;;;;;;;;;;;;;;;9.16;56.30;100637.44;7357808;19;19919;-61
2023/03/11 11:10:26;;;;;;;;;;;;;;;9.21;56.62;100624.69;7358125;19;19929;-63
2023/03/11 11:12:55;;;;;;;;;;;;;;;9.23;56.61;100628.84;7357478;19;19926;-62
2023/03/11 11:15:24;;;;;;;;;;;;;;;9.27;55.76;100622.31;7356547;19;19930;-61
2023/03/11 11:17:54;;;;;;;;;;;;;;;9.33;56.48;100608.59;7364846;19;20028;-63
2023/03/11 11:20:23;;;;;;;;;;;;;;;9.42;55.92;100612.09;7365877;19;19919;-62
2023/03/11 11:22:52;;;;;;;;;;;;;;;9.44;55.25;100612.78;7368989;19;20280;-58
2023/03/11 11:25:22;;;;;;;;;;;;;;;9.45;54.27;100610.00;7364698;19;21656;-61
2023/03/11 11:27:52;;;;;;;;;;;;;;;9.47;53.90;100615.09;7364510;19;19910;-64
2023/03/11 11:30:20;;;;;;;;;;;;;;;9.53;54.91;100605.81;7366289;19;19922;-61
2023/03/11 11:32:47;;;;;;;;;;;;;;;9.58;53.71;100606.16;7363653;19;20251;-60
2023/03/11 11:35:15;;;;;;;;;;;;;;;9.64;53.96;100605.56;7363341;19;19918;-69
2023/03/11 11:37:45;;;;;;;;;;;;;;;9.65;53.55;100605.41;7363366;19;19926;-63
2023/03/11 11:40:13;;;;;;;;;;;;;;;9.69;54.24;100609.38;7362099;19;19918;-61
2023/03/11 11:42:43;;;;;;;;;;;;;;;9.77;56.65;100598.09;7363805;19;19931;-62
2023/03/11 11:45:11;;;;;;;;;;;;;;;9.86;55.89;100599.81;7364594;19;20328;-62
2023/03/11 11:47:41;;;;;;;;;;;;;;;9.95;55.22;100601.53;7362921;19;19992;-61
2023/03/11 11:50:13;;;;;;;;;;;;;;;10.03;53.44;100595.50;7364366;19;19933;-60
2023/03/11 11:52:43;;;;;;;;;;;;;;;10.07;53.77;100596.81;7360836;19;19927;-60
2023/03/11 11:55:17;;;;;;;;;;;;;;;10.09;52.60;100594.88;7363485;19;19944;-62
2023/03/11 11:57:44;;;;;;;;;;;;;;;10.15;53.04;100592.44;7363111;19;21584;-60
2023/03/11 12:00:19;;;;;;;;;;;;;;;10.17;52.95;100595.75;7363722;19;21345;-62
2023/03/11 12:02:49;;;;;;;;;;;;;;;10.18;51.74;100602.69;7363867;19;20006;-61
2023/03/11 12:05:22;;;;;;;;;;;;;;;10.16;51.44;100601.16;7363875;19;19918;-62
2023/03/11 12:07:52;;;;;;;;;;;;;;;10.13;51.40;100591.78;7363237;19;19946;-62
2023/03/11 12:10:19;;;;;;;;;;;;;;;10.16;52.37;100601.16;7360622;19;19935;-60
2023/03/11 12:12:52;;;;;;;;;;;;;;;10.15;51.92;100602.97;7363795;19;19923;-59
2023/03/11 12:15:23;;;;;;;;;;;;;;;10.12;51.82;100605.06;7362026;19;20190;-59
2023/03/11 12:17:51;;;;;;;;;;;;;;;10.10;52.50;100604.41;7364454;19;19922;-61
2023/03/11 12:20:26;;;;;;;;;;;;;;;10.09;52.45;100597.50;7364196;19;19998;-60
2023/03/11 12:22:57;;;;;;;;;;;;;;;10.03;50.85;100593.69;7364026;19;19929;-61
2023/03/11 12:25:27;;;;;;;;;;;;;;;10.03;52.30;100591.06;7360254;19;19930;-57
2023/03/11 12:27:57;;;;;;;;;;;;;;;10.02;50.80;100591.19;7362997;19;19961;-58
2023/03/11 12:30:27;;;;;;;;;;;;;;;10.01;50.81;100586.91;7363047;19;19966;-60
2023/03/11 12:32:57;;;;;;;;;;;;;;;9.92;50.70;100593.94;7363948;19;19915;-65
2023/03/11 12:35:27;;;;;;;;;;;;;;;9.87;50.65;100586.53;7363415;19;19982;-61
2023/03/11 12:38:01;;;;;;;;;;;;;;;9.90;51.07;100589.84;7363565;19;20322;-61
2023/03/11 12:40:31;;;;;;;;;;;;;;;9.93;51.05;100585.09;7360813;19;19945;-58
2023/03/11 12:42:58;;;;;;;;;;;;;;;9.97;51.23;100591.66;7362721;19;19927;-62
2023/03/11 12:45:28;;;;;;;;;;;;;;;10.09;51.10;100598.31;7363475;19;19927;-59
2023/03/11 12:47:58;;;;;;;;;;;;;;;10.17;51.13;100590.50;7364903;19;19915;-60
2023/03/11 12:50:28;;;;;;;;;;;;;;;10.27;50.78;100588.59;7363567;19;19923;-59
2023/03/11 12:52:55;;;;;;;;;;;;;;;10.35;50.93;100590.44;7359385;19;20565;-59